Time;durP1;ratioP1;P1;durP2;ratioP2;P2;SDS_P1;SDS_P2;PMS_P1;PMS_P2;Temp;Humidity;BMP_temperature;BMP_pressure;BME280_temperature;BME280_humidity;BME280_pressure;Samples;Min_cycle;Max_cycle;Signal;HPM_P1;HPM_P2
2022/01/12 00:01:56;;;;;;;2.78;1.80;;;5.00;50.00;;;;;;4998963;28;20057;-93
2022/01/12 00:04:22;;;;;;;1.98;1.63;;;5.00;50.00;;;;;;4996671;28;20030;-92
2022/01/12 00:06:48;;;;;;;2.13;1.70;;;5.00;50.00;;;;;;5002949;28;20042;-91
2022/01/12 00:09:14;;;;;;;2.78;1.60;;;5.00;50.00;;;;;;5008501;28;20026;-92
2022/01/12 00:11:40;;;;;;;2.40;1.80;;;5.00;49.90;;;;;;5005450;28;20050;-91
2022/01/12 00:14:06;;;;;;;3.28;1.85;;;5.00;49.70;;;;;;4999625;28;20498;-90
2022/01/12 00:16:33;;;;;;;2.08;1.70;;;5.00;49.60;;;;;;4984285;28;20113;-92
2022/01/12 00:18:59;;;;;;;2.35;1.70;;;5.00;49.60;;;;;;4984139;28;20026;-92
2022/01/12 00:21:25;;;;;;;2.13;1.65;;;5.00;49.70;;;;;;4981827;28;20034;-91
2022/01/12 00:23:51;;;;;;;1.95;1.52;;;5.00;49.70;;;;;;4985558;28;20039;-91
2022/01/12 00:26:41;;;;;;;2.47;1.90;;;5.00;49.70;;;;;;4981574;28;20038;-92
2022/01/12 00:34:42;;;;;;;2.97;1.90;;;5.00;49.70;;;;;;4994798;28;20041;-91
2022/01/12 00:37:11;;;;;;;2.72;1.52;;;5.00;49.90;;;;;;5016439;28;20217;-90
2022/01/12 00:39:38;;;;;;;2.00;1.50;;;5.00;49.80;;;;;;4998478;28;20129;-90
2022/01/12 00:42:10;;;;;;;2.15;1.65;;;4.90;49.80;;;;;;5003316;28;20030;-88
2022/01/12 00:44:36;;;;;;;1.92;1.60;;;4.90;49.80;;;;;;4989805;28;20035;-92
2022/01/12 00:47:02;;;;;;;2.50;1.60;;;4.90;49.70;;;;;;4971591;28;20120;-91
2022/01/12 00:49:28;;;;;;;2.03;1.63;;;4.90;49.70;;;;;;4983361;28;20030;-92
2022/01/12 00:51:54;;;;;;;1.85;1.50;;;4.90;49.80;;;;;;4965310;28;20080;-89
2022/01/12 00:54:22;;;;;;;3.42;1.60;;;4.90;49.80;;;;;;4990837;28;20041;-93
2022/01/12 00:56:51;;;;;;;2.53;1.67;;;4.90;49.80;;;;;;4983850;28;20144;-91
2022/01/12 00:59:17;;;;;;;2.65;1.70;;;4.90;49.70;;;;;;4981149;28;20113;-92
2022/01/12 01:01:44;;;;;;;2.53;1.70;;;4.90;49.70;;;;;;4970813;28;20034;-88
2022/01/12 01:04:10;;;;;;;3.35;1.50;;;4.90;49.60;;;;;;5002853;28;20033;-94
2022/01/12 01:06:37;;;;;;;1.90;1.70;;;4.90;49.60;;;;;;5002771;28;20041;-94
2022/01/12 01:09:05;;;;;;;2.20;1.75;;;4.90;49.30;;;;;;4985888;28;20069;-90
2022/01/12 01:11:33;;;;;;;3.15;1.65;;;4.90;49.10;;;;;;4992706;28;20094;-91
2022/01/12 01:14:11;;;;;;;2.05;1.83;;;4.90;49.00;;;;;;5005727;28;20726;-92
2022/01/12 01:16:50;;;;;;;2.13;1.70;;;4.90;48.80;;;;;;5005997;28;20041;-94
2022/01/12 01:27:34;;;;;;;2.63;1.60;;;4.90;48.30;;;;;;4999664;28;20031;-94
2022/01/12 01:30:00;;;;;;;2.42;1.70;;;4.90;48.10;;;;;;4982898;28;20477;-93
2022/01/12 01:32:27;;;;;;;1.95;1.75;;;4.90;47.90;;;;;;4981164;28;20041;-90
2022/01/12 01:34:53;;;;;;;2.00;1.65;;;4.90;47.80;;;;;;4981682;28;20039;-93
2022/01/12 01:37:20;;;;;;;2.08;1.70;;;5.00;47.70;;;;;;4981204;28;20084;-91
2022/01/12 01:39:49;;;;;;;3.58;2.15;;;4.90;47.50;;;;;;4981419;28;20031;-93
2022/01/12 01:42:24;;;;;;;2.80;2.05;;;4.90;47.60;;;;;;4982119;28;20387;-91
2022/01/12 01:55:37;;;;;;;3.28;1.95;;;4.90;47.20;;;;;;4982557;28;20038;-95
2022/01/12 01:58:04;;;;;;;2.65;1.98;;;4.90;47.30;;;;;;4985486;28;20062;-91
2022/01/12 02:00:34;;;;;;;2.35;1.83;;;4.90;47.40;;;;;;4981783;28;20035;-91
2022/01/12 02:03:05;;;;;;;3.42;2.10;;;4.80;47.30;;;;;;4985316;28;20100;-92
2022/01/12 02:05:41;;;;;;;2.55;1.80;;;4.80;47.20;;;;;;4992295;28;20039;-92
2022/01/12 02:08:08;;;;;;;2.65;2.03;;;4.80;47.10;;;;;;4995355;28;20041;-92
2022/01/12 02:10:41;;;;;;;2.38;1.88;;;4.80;47.30;;;;;;4990946;28;20030;-93
2022/01/12 02:13:08;;;;;;;2.70;1.85;;;4.80;47.30;;;;;;5006441;28;20061;-93
2022/01/12 02:15:34;;;;;;;2.50;2.05;;;4.80;47.30;;;;;;5010145;28;20387;-93
2022/01/12 02:18:11;;;;;;;2.25;2.00;;;4.80;47.20;;;;;;4994134;28;20022;-93
2022/01/12 02:35:14;;;;;;;2.88;1.60;;;4.90;47.20;;;;;;5001294;28;20049;-92
2022/01/12 02:40:34;;;;;;;2.78;2.05;;;4.80;46.50;;;;;;4986059;28;20085;-92
2022/01/12 02:43:15;;;;;;;2.22;1.73;;;4.90;46.50;;;;;;4984044;28;20030;-90
2022/01/12 02:53:46;;;;;;;2.55;2.00;;;4.80;46.60;;;;;;5003484;28;20098;-93
2022/01/12 02:56:18;;;;;;;2.88;1.80;;;4.80;46.70;;;;;;4986604;28;20034;-93
2022/01/12 02:58:46;;;;;;;2.22;1.90;;;4.80;46.70;;;;;;4984644;28;20030;-93
2022/01/12 03:04:03;;;;;;;3.38;2.13;;;4.80;46.50;;;;;;4984242;28;20050;-91
2022/01/12 03:06:34;;;;;;;3.00;2.13;;;4.80;46.30;;;;;;4984681;28;20456;-93
2022/01/12 03:09:04;;;;;;;2.20;2.00;;;4.80;46.10;;;;;;4981832;28;20030;-89
2022/01/12 03:11:31;;;;;;;3.53;2.30;;;4.80;46.10;;;;;;4996438;28;20186;-90
2022/01/12 03:14:04;;;;;;;4.70;2.15;;;4.90;46.20;;;;;;5003084;28;20039;-90
2022/01/12 03:16:30;;;;;;;3.65;2.35;;;4.80;46.00;;;;;;5018102;28;20035;-90
2022/01/12 03:19:02;;;;;;;2.25;1.90;;;4.90;46.00;;;;;;4992402;28;20049;-90
2022/01/12 03:21:33;;;;;;;2.88;2.00;;;4.90;46.00;;;;;;4995695;28;20033;-90
2022/01/12 03:23:59;;;;;;;3.03;2.05;;;4.90;46.20;;;;;;4988469;28;20401;-92
2022/01/12 03:26:29;;;;;;;1.90;1.75;;;4.90;46.00;;;;;;4986612;28;20038;-91
2022/01/12 03:28:56;;;;;;;2.42;2.13;;;5.00;46.00;;;;;;4992032;28;20108;-91
2022/01/12 03:31:29;;;;;;;2.42;2.20;;;5.00;45.90;;;;;;4988273;28;20032;-91
2022/01/12 03:34:10;;;;;;;3.33;2.15;;;4.90;46.10;;;;;;4986419;28;20045;-86
2022/01/12 03:39:10;;;;;;;3.72;2.47;;;5.00;46.20;;;;;;5002340;28;20128;-87
2022/01/12 03:41:39;;;;;;;4.30;2.30;;;5.00;46.20;;;;;;4996780;28;20030;-91
2022/01/12 03:44:07;;;;;;;3.08;2.10;;;4.90;46.00;;;;;;4994370;28;20042;-91
2022/01/12 03:46:46;;;;;;;2.88;2.15;;;5.00;46.00;;;;;;4970712;28;20041;-90
2022/01/12 03:49:16;;;;;;;2.42;2.00;;;5.00;46.20;;;;;;4982282;28;20030;-89
2022/01/12 03:51:43;;;;;;;3.08;2.08;;;4.90;46.00;;;;;;4985488;28;20068;-90
2022/01/12 03:54:10;;;;;;;4.53;2.55;;;4.90;46.20;;;;;;4982368;28;20033;-90
2022/01/12 03:56:37;;;;;;;2.85;2.35;;;4.90;46.30;;;;;;4965507;28;20489;-88
2022/01/12 03:59:04;;;;;;;2.63;2.08;;;4.90;46.50;;;;;;4983846;28;20037;-89
2022/01/12 04:01:30;;;;;;;2.85;2.00;;;4.90;46.30;;;;;;4982626;28;20263;-90
2022/01/12 04:04:03;;;;;;;3.50;2.63;;;5.00;46.60;;;;;;4998817;28;20072;-90
2022/01/12 04:09:15;;;;;;;2.53;2.17;;;5.00;46.50;;;;;;4999184;28;20084;-87
2022/01/12 04:11:41;;;;;;;3.25;2.33;;;5.00;46.40;;;;;;4993211;28;20046;-86
2022/01/12 04:14:08;;;;;;;2.80;2.08;;;5.00;46.30;;;;;;5013246;28;20102;-83
2022/01/12 04:16:36;;;;;;;2.53;2.13;;;5.10;46.30;;;;;;4993201;28;20030;-84
2022/01/12 04:19:03;;;;;;;4.25;2.50;;;5.10;46.30;;;;;;4986856;28;20548;-85
2022/01/12 04:21:30;;;;;;;2.58;2.30;;;5.10;46.20;;;;;;4982836;28;20038;-85
2022/01/12 04:23:58;;;;;;;3.25;2.38;;;5.00;46.10;;;;;;4981622;28;20033;-82
2022/01/12 04:26:25;;;;;;;2.38;1.90;;;5.10;46.10;;;;;;4980622;28;20043;-83
2022/01/12 04:28:52;;;;;;;3.33;2.35;;;5.10;46.20;;;;;;4980838;28;20411;-81
2022/01/12 04:31:18;;;;;;;2.42;2.13;;;5.10;46.00;;;;;;4980687;28;20030;-82
2022/01/12 04:33:46;;;;;;;2.72;2.20;;;5.10;46.20;;;;;;4983381;28;20074;-85
2022/01/12 04:36:15;;;;;;;3.70;2.40;;;5.10;46.20;;;;;;4980624;28;21921;-84
2022/01/12 04:38:43;;;;;;;3.58;2.75;;;5.10;46.00;;;;;;4983742;28;20193;-84
2022/01/12 04:41:10;;;;;;;3.10;2.38;;;5.10;46.00;;;;;;4985442;28;20040;-84
2022/01/12 04:43:41;;;;;;;3.53;2.30;;;5.10;46.00;;;;;;4981685;28;20034;-84
2022/01/12 04:46:21;;;;;;;3.80;2.20;;;5.00;45.80;;;;;;4981334;28;20041;-89
2022/01/12 04:48:52;;;;;;;5.43;2.40;;;5.10;45.90;;;;;;4980055;28;20035;-87
2022/01/12 04:51:19;;;;;;;3.55;2.55;;;5.00;45.90;;;;;;4967026;28;20462;-88
2022/01/12 04:53:45;;;;;;;3.28;2.10;;;5.00;45.90;;;;;;4980382;28;20117;-88
2022/01/12 04:56:11;;;;;;;3.58;2.85;;;5.10;46.60;;;;;;4982126;28;20041;-86
2022/01/12 04:58:37;;;;;;;5.05;2.47;;;5.10;45.80;;;;;;4981575;28;20038;-87
2022/01/12 05:01:11;;;;;;;3.55;2.05;;;5.10;45.90;;;;;;4982310;28;20161;-88
2022/01/12 05:06:40;;;;;;;2.78;2.05;;;5.10;45.60;;;;;;4993860;28;20042;-87
2022/01/12 05:09:28;;;;;;;3.65;2.10;;;5.20;45.60;;;;;;4980191;28;20085;-85
2022/01/12 05:14:44;;;;;;;2.75;2.13;;;5.20;45.50;;;;;;4995830;28;20049;-96
2022/01/12 05:17:10;;;;;;;2.97;2.42;;;5.20;45.50;;;;;;5007700;28;20019;-91
2022/01/12 05:19:36;;;;;;;4.43;2.40;;;5.20;45.40;;;;;;5013433;28;20023;-90
2022/01/12 05:22:02;;;;;;;3.67;2.30;;;5.20;45.50;;;;;;4998223;28;20045;-90
2022/01/12 05:24:29;;;;;;;2.65;2.20;;;5.20;45.40;;;;;;4992092;28;20037;-91
2022/01/12 05:26:55;;;;;;;2.60;2.00;;;5.20;45.40;;;;;;5000170;28;20050;-91
2022/01/12 05:29:21;;;;;;;4.53;2.17;;;5.20;45.50;;;;;;4991142;28;20454;-91
2022/01/12 05:31:48;;;;;;;4.60;2.50;;;5.20;45.30;;;;;;4970521;28;20118;-91
2022/01/12 05:34:14;;;;;;;3.72;2.30;;;5.20;45.30;;;;;;4988411;28;20597;-89
2022/01/12 05:36:40;;;;;;;3.53;2.40;;;5.20;45.50;;;;;;4988979;28;20034;-89
2022/01/12 05:39:07;;;;;;;3.95;2.65;;;5.20;45.50;;;;;;4988874;28;20065;-89
2022/01/12 05:41:33;;;;;;;3.20;2.00;;;5.20;45.60;;;;;;4981461;28;20045;-92
2022/01/12 05:43:59;;;;;;;2.75;2.10;;;5.20;45.60;;;;;;4977453;28;20050;-93
2022/01/12 05:46:27;;;;;;;4.13;2.00;;;5.20;45.60;;;;;;4989297;28;20045;-90
2022/01/12 05:51:44;;;;;;;3.13;2.40;;;5.20;45.70;;;;;;5001068;28;20038;-90
2022/01/12 05:54:11;;;;;;;3.92;2.33;;;5.20;45.80;;;;;;4984024;28;20433;-90
2022/01/12 05:56:37;;;;;;;3.22;2.55;;;5.20;46.00;;;;;;4999345;28;20037;-90
2022/01/12 05:59:03;;;;;;;3.50;2.42;;;5.30;46.10;;;;;;4987858;28;20084;-90
2022/01/12 06:01:29;;;;;;;2.80;2.10;;;5.30;45.90;;;;;;4987089;28;20505;-90
2022/01/12 06:03:55;;;;;;;3.40;2.38;;;5.30;45.80;;;;;;4983101;28;20042;-90
2022/01/12 06:06:22;;;;;;;3.83;2.20;;;5.40;45.70;;;;;;4965651;28;20046;-88
2022/01/12 06:08:49;;;;;;;3.10;2.15;;;5.40;45.60;;;;;;4982977;28;20026;-89
2022/01/12 06:11:17;;;;;;;4.00;2.88;;;5.40;45.50;;;;;;4984146;28;20585;-89
2022/01/12 06:13:45;;;;;;;3.72;2.47;;;5.40;45.40;;;;;;4984203;28;20137;-89
2022/01/12 06:16:11;;;;;;;3.45;2.58;;;5.40;45.20;;;;;;4992115;28;20098;-89
2022/01/12 06:18:40;;;;;;;4.47;3.38;;;5.40;45.00;;;;;;5011922;28;20026;-89
2022/01/12 06:21:06;;;;;;;3.80;2.60;;;5.40;44.90;;;;;;5010441;28;20021;-88
2022/01/12 06:23:55;;;;;;;3.63;2.60;;;5.30;44.80;;;;;;5009931;28;20030;-87
2022/01/12 06:26:24;;;;;;;4.85;2.40;;;5.30;44.80;;;;;;4971831;28;20038;-86
2022/01/12 06:30:04;;;;;;;3.88;2.80;;;5.40;44.90;;;;;;4984847;28;20066;-86
2022/01/12 06:31:49;;;;;;;4.00;2.47;;;5.30;44.90;;;;;;4976398;28;20497;-86
2022/01/12 06:34:16;;;;;;;4.93;3.45;;;5.30;44.80;;;;;;4983652;28;20064;-86
2022/01/12 06:36:42;;;;;;;3.65;3.10;;;5.30;44.80;;;;;;4982198;28;20034;-86
2022/01/12 06:39:11;;;;;;;3.35;2.42;;;5.40;44.90;;;;;;4983593;28;20036;-86
2022/01/12 06:41:39;;;;;;;3.42;2.72;;;5.40;44.80;;;;;;4983127;28;20038;-86
2022/01/12 06:44:06;;;;;;;4.07;2.55;;;5.40;44.70;;;;;;4984786;28;20468;-86
2022/01/12 06:46:34;;;;;;;4.50;2.75;;;5.40;44.60;;;;;;4969749;28;20489;-87
2022/01/12 06:49:01;;;;;;;3.45;2.38;;;5.40;44.40;;;;;;4968719;28;20120;-86
2022/01/12 06:51:28;;;;;;;3.80;3.00;;;5.40;44.30;;;;;;4983226;28;20503;-86
2022/01/12 06:53:56;;;;;;;3.70;2.45;;;5.50;44.30;;;;;;4982062;28;20058;-87
2022/01/12 06:56:23;;;;;;;3.38;2.28;;;5.50;44.20;;;;;;4981148;28;20389;-86
2022/01/12 06:58:52;;;;;;;4.68;2.92;;;5.50;44.10;;;;;;4987426;28;20065;-87
2022/01/12 07:01:21;;;;;;;3.15;2.42;;;5.50;44.10;;;;;;4983773;28;21541;-86
2022/01/12 07:03:49;;;;;;;2.60;2.40;;;5.50;43.90;;;;;;4983066;28;20034;-87
2022/01/12 07:06:15;;;;;;;3.42;2.53;;;5.60;44.10;;;;;;4965504;28;20142;-86
2022/01/12 07:08:42;;;;;;;4.38;2.55;;;5.60;44.00;;;;;;4987418;28;20061;-86
2022/01/12 07:11:15;;;;;;;3.28;2.58;;;5.60;44.00;;;;;;4983228;28;20417;-86
2022/01/12 07:13:42;;;;;;;3.35;2.75;;;5.60;43.90;;;;;;4969638;28;20058;-87
2022/01/12 07:16:09;;;;;;;3.20;2.35;;;5.60;43.70;;;;;;4985037;28;20462;-87
2022/01/12 07:18:35;;;;;;;3.33;2.55;;;5.60;43.90;;;;;;4966025;28;20034;-87
2022/01/12 07:21:02;;;;;;;3.92;2.63;;;5.60;43.90;;;;;;4990493;28;20061;-85
2022/01/12 07:23:28;;;;;;;4.10;2.80;;;5.60;43.70;;;;;;4991557;28;20018;-85
2022/01/12 07:25:54;;;;;;;3.47;2.70;;;5.60;43.80;;;;;;5006599;28;20112;-84
2022/01/12 07:28:20;;;;;;;3.58;2.42;;;5.60;43.80;;;;;;4990387;28;20045;-86
2022/01/12 07:30:47;;;;;;;4.97;2.38;;;5.60;43.90;;;;;;4989323;28;20022;-86
2022/01/12 07:33:14;;;;;;;4.30;2.50;;;5.60;43.70;;;;;;4983684;28;20034;-87
2022/01/12 07:35:42;;;;;;;3.88;2.70;;;5.60;43.50;;;;;;4984577;28;20045;-86
2022/01/12 07:38:09;;;;;;;4.60;2.45;;;5.60;43.60;;;;;;4984747;28;20048;-87
2022/01/12 07:40:35;;;;;;;4.03;2.80;;;5.60;44.00;;;;;;4984209;28;20034;-87
2022/01/12 07:43:06;;;;;;;4.18;2.67;;;5.60;43.40;;;;;;4989118;28;20118;-84
2022/01/12 07:45:33;;;;;;;3.75;2.88;;;5.60;43.50;;;;;;5002067;28;20422;-87
2022/01/12 07:47:59;;;;;;;3.65;2.38;;;5.60;43.50;;;;;;4984562;28;20129;-87
2022/01/12 07:50:25;;;;;;;2.50;2.05;;;5.60;43.60;;;;;;4968705;28;20457;-86
2022/01/12 07:52:53;;;;;;;4.30;2.53;;;5.70;43.60;;;;;;4986199;28;20413;-86
2022/01/12 07:55:23;;;;;;;4.15;3.20;;;5.70;43.60;;;;;;4990250;28;20035;-87
2022/01/12 07:57:51;;;;;;;4.53;2.42;;;5.70;43.70;;;;;;4986750;28;20038;-87
2022/01/12 08:00:18;;;;;;;3.55;2.28;;;5.80;43.70;;;;;;4985484;28;20524;-86
2022/01/12 08:02:44;;;;;;;3.08;2.50;;;5.80;43.70;;;;;;4997906;28;20030;-87
2022/01/12 08:05:10;;;;;;;5.10;2.88;;;5.80;43.60;;;;;;4981524;28;20030;-87
2022/01/12 08:07:38;;;;;;;4.07;2.88;;;5.90;43.60;;;;;;4984476;28;20619;-88
2022/01/12 08:10:09;;;;;;;3.75;2.72;;;5.90;43.70;;;;;;4985204;28;20390;-87
2022/01/12 08:12:36;;;;;;;6.68;2.47;;;5.90;43.60;;;;;;4968153;28;20042;-87
2022/01/12 08:15:04;;;;;;;3.67;2.45;;;5.90;43.40;;;;;;4978985;28;20030;-85
2022/01/12 08:17:31;;;;;;;3.53;2.88;;;6.00;43.60;;;;;;4983099;28;20030;-87
2022/01/12 08:19:58;;;;;;;3.05;2.28;;;6.00;43.60;;;;;;4982068;28;20061;-86
2022/01/12 08:22:24;;;;;;;5.55;2.72;;;6.00;43.30;;;;;;4982481;28;20031;-86
2022/01/12 08:24:50;;;;;;;4.15;2.75;;;6.00;43.40;;;;;;5005240;28;20022;-84
2022/01/12 08:27:15;;;;;;;3.28;2.70;;;6.00;43.30;;;;;;5005718;28;20015;-85
2022/01/12 08:29:41;;;;;;;3.97;2.55;;;6.00;43.30;;;;;;4999550;28;20129;-85
2022/01/12 08:32:08;;;;;;;4.05;2.72;;;6.10;43.30;;;;;;4987656;28;20037;-87
2022/01/12 08:34:34;;;;;;;4.00;2.80;;;6.00;43.20;;;;;;4984818;28;20030;-86
2022/01/12 08:37:00;;;;;;;3.67;2.55;;;6.10;43.30;;;;;;4984065;28;20061;-87
2022/01/12 08:39:26;;;;;;;4.45;2.67;;;6.00;43.10;;;;;;4982253;28;20068;-86
2022/01/12 08:41:52;;;;;;;4.47;2.50;;;6.10;43.20;;;;;;4980114;28;20034;-87
2022/01/12 08:44:18;;;;;;;3.63;2.80;;;6.00;43.00;;;;;;4961864;28;20038;-84
2022/01/12 08:46:44;;;;;;;4.90;3.00;;;6.10;43.10;;;;;;4980587;28;20057;-87
2022/01/12 08:49:10;;;;;;;4.03;2.83;;;6.10;43.00;;;;;;4968616;28;20042;-86
2022/01/12 08:51:37;;;;;;;3.85;2.70;;;6.10;43.20;;;;;;4983477;28;20037;-87
2022/01/12 08:54:04;;;;;;;4.65;2.90;;;6.10;43.20;;;;;;4981416;28;20055;-91
2022/01/12 08:56:30;;;;;;;4.05;2.90;;;6.10;43.30;;;;;;4981206;28;20049;-84
2022/01/12 08:58:56;;;;;;;4.05;2.67;;;6.10;43.30;;;;;;4984803;28;20034;-85
2022/01/12 09:01:22;;;;;;;3.17;2.47;;;6.10;43.40;;;;;;4966897;28;20531;-85
2022/01/12 09:03:48;;;;;;;5.22;2.58;;;6.10;43.40;;;;;;4981202;28;20038;-85
2022/01/12 09:06:14;;;;;;;3.10;2.50;;;6.10;43.40;;;;;;4983541;28;20089;-85
2022/01/12 09:08:42;;;;;;;3.05;2.40;;;6.10;43.30;;;;;;4980780;28;20046;-85
2022/01/12 09:11:09;;;;;;;5.90;3.55;;;6.10;43.50;;;;;;4996109;28;20042;-86
2022/01/12 09:13:35;;;;;;;3.70;2.85;;;6.10;43.40;;;;;;4997043;28;20046;-86
2022/01/12 09:16:06;;;;;;;4.45;2.67;;;6.10;43.40;;;;;;4966442;28;20193;-85
2022/01/12 09:18:36;;;;;;;3.63;2.80;;;6.10;43.30;;;;;;4983516;28;20038;-85
2022/01/12 09:21:04;;;;;;;4.13;2.80;;;6.10;43.20;;;;;;4980568;28;20511;-86
2022/01/12 09:23:30;;;;;;;3.65;2.50;;;6.10;43.00;;;;;;4982597;28;20035;-86
2022/01/12 09:25:56;;;;;;;3.53;2.97;;;6.00;42.80;;;;;;4992600;28;20111;-86
2022/01/12 09:28:22;;;;;;;3.50;2.58;;;6.00;42.70;;;;;;5008644;28;20039;-85
2022/01/12 09:30:48;;;;;;;3.75;2.90;;;6.00;42.70;;;;;;5008923;28;20030;-85
2022/01/12 09:33:14;;;;;;;3.33;2.60;;;6.00;42.50;;;;;;5004004;28;20125;-86
2022/01/12 09:35:42;;;;;;;4.03;2.83;;;6.00;42.40;;;;;;4989650;28;20153;-86
2022/01/12 09:38:09;;;;;;;5.35;2.88;;;5.90;42.20;;;;;;4988545;28;20477;-85
2022/01/12 09:40:35;;;;;;;3.13;2.72;;;5.90;42.10;;;;;;4984344;28;20068;-86
2022/01/12 09:43:05;;;;;;;4.13;3.03;;;5.90;42.00;;;;;;4986411;28;21526;-85
2022/01/12 09:45:32;;;;;;;3.72;2.55;;;5.90;42.00;;;;;;4984350;28;20378;-86
2022/01/12 09:47:58;;;;;;;3.33;2.70;;;5.90;41.80;;;;;;4983615;28;20058;-86
2022/01/12 09:50:24;;;;;;;3.65;2.70;;;5.90;41.80;;;;;;4984544;28;20038;-86
2022/01/12 09:52:51;;;;;;;3.35;2.50;;;5.80;41.70;;;;;;4998751;28;20027;-87
2022/01/12 09:55:19;;;;;;;2.85;2.50;;;5.80;41.80;;;;;;4983219;28;20073;-86
2022/01/12 09:57:45;;;;;;;4.13;2.40;;;5.80;41.80;;;;;;4984420;28;20038;-84
2022/01/12 10:00:13;;;;;;;3.83;2.63;;;5.80;42.00;;;;;;4983675;28;20035;-86
2022/01/12 10:02:42;;;;;;;3.95;2.90;;;5.80;42.20;;;;;;4983290;28;20445;-86
2022/01/12 10:05:10;;;;;;;4.65;2.78;;;5.80;42.20;;;;;;4982635;28;20048;-87
2022/01/12 10:07:36;;;;;;;4.47;3.03;;;5.80;42.00;;;;;;5000650;28;20038;-87
2022/01/12 10:10:09;;;;;;;4.82;2.92;;;5.80;42.10;;;;;;4984092;28;20608;-86
2022/01/12 10:12:35;;;;;;;3.80;2.75;;;5.90;42.20;;;;;;4984630;28;20042;-88
2022/01/12 10:15:14;;;;;;;3.63;2.70;;;5.90;42.30;;;;;;4997827;28;20092;-87
2022/01/12 10:17:43;;;;;;;4.13;3.03;;;5.90;42.40;;;;;;4985511;28;20030;-87
2022/01/12 10:20:21;;;;;;;4.15;3.20;;;5.90;42.50;;;;;;4983845;28;20026;-87
2022/01/12 10:23:05;;;;;;;5.68;2.88;;;5.90;42.70;;;;;;4984301;28;20460;-87
2022/01/12 10:25:31;;;;;;;4.57;3.08;;;5.90;42.80;;;;;;4999085;28;20043;-86
2022/01/12 10:27:59;;;;;;;5.68;3.20;;;5.90;42.80;;;;;;4986571;28;20088;-85
2022/01/12 10:30:30;;;;;;;4.28;2.97;;;5.90;42.80;;;;;;5009789;28;20050;-84
2022/01/12 10:33:04;;;;;;;4.32;3.03;;;5.90;42.80;;;;;;5008742;28;20034;-86
2022/01/12 10:35:32;;;;;;;4.40;3.22;;;6.00;42.90;;;;;;5005305;28;20073;-85
2022/01/12 10:38:14;;;;;;;3.38;2.83;;;5.90;42.80;;;;;;4995009;28;20034;-86
2022/01/12 10:40:52;;;;;;;4.18;3.03;;;5.90;42.90;;;;;;4987628;28;20030;-88
2022/01/12 10:43:35;;;;;;;5.05;3.05;;;5.90;43.00;;;;;;4985338;28;20041;-89
2022/01/12 10:46:07;;;;;;;4.85;3.05;;;5.90;43.00;;;;;;4984770;28;20038;-89
2022/01/12 10:48:45;;;;;;;4.68;2.92;;;5.90;43.00;;;;;;4981530;28;20027;-88
2022/01/12 10:51:16;;;;;;;4.35;3.03;;;5.90;43.10;;;;;;4985159;28;20039;-88
2022/01/12 10:53:42;;;;;;;3.92;3.03;;;5.90;43.20;;;;;;4984029;28;20030;-87
2022/01/12 10:56:14;;;;;;;4.35;2.97;;;5.80;43.20;;;;;;4986574;28;20166;-89
2022/01/12 10:58:48;;;;;;;4.25;3.15;;;5.80;43.30;;;;;;4984353;28;20421;-87
2022/01/12 11:01:19;;;;;;;3.63;2.90;;;5.80;43.20;;;;;;4981182;28;20045;-88
2022/01/12 11:03:47;;;;;;;4.10;3.20;;;5.80;43.20;;;;;;4984381;28;20046;-87
2022/01/12 11:06:14;;;;;;;5.55;3.00;;;5.80;43.20;;;;;;4982999;28;20627;-89
2022/01/12 11:08:41;;;;;;;5.15;3.05;;;5.80;43.20;;;;;;4986203;28;20519;-89
2022/01/12 11:11:07;;;;;;;4.18;2.97;;;5.80;43.20;;;;;;4978234;28;20142;-89
2022/01/12 11:13:34;;;;;;;3.70;2.95;;;5.80;43.30;;;;;;4986553;28;20054;-89
2022/01/12 11:16:01;;;;;;;4.85;3.50;;;5.80;43.50;;;;;;4986088;28;20422;-89
2022/01/12 11:18:31;;;;;;;5.15;3.22;;;5.80;43.50;;;;;;4967040;28;20709;-89
2022/01/12 11:21:14;;;;;;;5.00;3.25;;;5.80;43.60;;;;;;4985315;28;20077;-89
2022/01/12 11:23:42;;;;;;;6.45;3.53;;;5.90;43.60;;;;;;4987530;28;20049;-89
2022/01/12 11:26:15;;;;;;;4.60;3.10;;;5.90;43.60;;;;;;4987181;28;20034;-89
2022/01/12 11:28:46;;;;;;;5.22;3.47;;;5.90;43.50;;;;;;4987302;28;20041;-88
2022/01/12 11:31:18;;;;;;;4.72;3.40;;;5.90;43.40;;;;;;4995135;28;20469;-89
2022/01/12 11:33:47;;;;;;;5.07;3.60;;;5.90;43.30;;;;;;5001410;28;20030;-88
2022/01/12 11:36:24;;;;;;;4.68;3.10;;;5.90;43.30;;;;;;5008705;28;20062;-87
2022/01/12 11:39:16;;;;;;;5.00;3.17;;;5.90;43.30;;;;;;5002534;28;20046;-89
2022/01/12 11:41:46;;;;;;;4.93;3.60;;;5.90;43.30;;;;;;4992444;28;20035;-86
2022/01/12 11:44:18;;;;;;;5.85;3.40;;;5.90;43.20;;;;;;5007316;28;20033;-88
2022/01/12 11:46:51;;;;;;;4.72;3.55;;;5.90;43.20;;;;;;4988352;28;20039;-89
2022/01/12 11:49:32;;;;;;;5.10;3.35;;;5.90;43.10;;;;;;4999286;28;20037;-90
2022/01/12 11:52:04;;;;;;;5.13;3.42;;;5.90;43.10;;;;;;5000545;28;20524;-89
2022/01/12 11:54:33;;;;;;;6.88;3.80;;;5.90;43.10;;;;;;4982911;28;20118;-89
2022/01/12 11:57:03;;;;;;;5.60;3.67;;;5.90;43.30;;;;;;4985880;28;20518;-91
2022/01/12 11:59:31;;;;;;;6.70;4.20;;;5.90;42.90;;;;;;5000718;28;20126;-90
2022/01/12 12:02:09;;;;;;;7.65;4.07;;;5.90;43.00;;;;;;4985033;28;20038;-90
2022/01/12 12:04:36;;;;;;;6.10;3.95;;;5.80;42.90;;;;;;4983903;28;20440;-88
2022/01/12 12:07:12;;;;;;;6.53;3.90;;;5.80;43.00;;;;;;4970033;28;20164;-89
2022/01/12 12:09:43;;;;;;;5.47;3.63;;;5.80;42.80;;;;;;4982041;28;20034;-88
2022/01/12 12:12:18;;;;;;;7.03;4.13;;;5.80;42.90;;;;;;4981682;28;20065;-88
2022/01/12 12:14:53;;;;;;;7.05;3.78;;;5.80;43.00;;;;;;4982373;28;20033;-89
2022/01/12 12:17:20;;;;;;;6.47;4.35;;;5.80;42.90;;;;;;4984130;28;20462;-88
2022/01/12 12:19:47;;;;;;;8.38;4.35;;;5.80;43.10;;;;;;4969355;28;20030;-89
2022/01/12 12:22:15;;;;;;;7.80;4.03;;;5.80;43.10;;;;;;4968246;28;20031;-89
2022/01/12 12:24:42;;;;;;;8.13;4.13;;;5.80;43.10;;;;;;4984590;28;20650;-89
2022/01/12 12:27:10;;;;;;;6.15;3.75;;;5.80;43.20;;;;;;4983941;28;20038;-90
2022/01/12 12:29:37;;;;;;;8.23;4.10;;;5.80;43.30;;;;;;4990557;28;20026;-88
2022/01/12 12:32:06;;;;;;;6.47;3.90;;;5.80;43.30;;;;;;4997257;28;20126;-88
2022/01/12 12:34:33;;;;;;;9.93;5.28;;;5.90;43.40;;;;;;5008301;28;20038;-88
2022/01/12 12:37:10;;;;;;;6.55;4.05;;;5.90;43.30;;;;;;5009808;28;20026;-88
2022/01/12 12:39:41;;;;;;;5.57;3.67;;;5.90;43.40;;;;;;4993947;28;20065;-89
2022/01/12 12:42:20;;;;;;;5.90;3.92;;;5.90;43.50;;;;;;4994266;28;20085;-89
2022/01/12 12:44:48;;;;;;;6.32;3.97;;;5.90;43.40;;;;;;4992031;28;20035;-88
2022/01/12 12:47:20;;;;;;;7.97;4.47;;;5.90;43.30;;;;;;4988391;28;20056;-91
2022/01/12 12:49:58;;;;;;;8.45;4.63;;;5.90;43.20;;;;;;4965694;28;20060;-90
2022/01/12 12:52:28;;;;;;;5.80;4.32;;;5.90;43.20;;;;;;4982915;28;20058;-89
2022/01/12 12:54:56;;;;;;;6.80;4.00;;;5.90;43.30;;;;;;4982085;28;20057;-88
2022/01/12 12:57:22;;;;;;;7.63;4.07;;;5.90;43.40;;;;;;4981683;28;20034;-88
2022/01/12 12:59:51;;;;;;;5.22;3.78;;;5.90;43.40;;;;;;4982332;28;20125;-88
2022/01/12 13:02:17;;;;;;;6.15;4.03;;;5.90;43.40;;;;;;4984042;28;20038;-89
2022/01/12 13:04:43;;;;;;;5.28;3.70;;;5.80;43.40;;;;;;4980157;28;20027;-89
2022/01/12 13:07:17;;;;;;;5.05;3.65;;;5.80;44.00;;;;;;4986546;28;20046;-89
2022/01/12 13:09:44;;;;;;;5.63;3.75;;;5.80;43.40;;;;;;4980604;28;20030;-90
2022/01/12 13:12:11;;;;;;;6.15;3.78;;;5.80;43.40;;;;;;4984406;28;20545;-90
2022/01/12 13:14:43;;;;;;;7.47;3.53;;;5.80;43.40;;;;;;4983788;28;20392;-90
2022/01/12 13:17:09;;;;;;;5.57;3.72;;;5.80;43.40;;;;;;4984611;28;20042;-91
2022/01/12 13:22:37;;;;;;;5.20;3.47;;;5.80;43.60;;;;;;4990889;28;20065;-91
2022/01/12 13:25:08;;;;;;;4.50;3.20;;;5.80;43.70;;;;;;4966842;28;20044;-89
2022/01/12 13:27:36;;;;;;;4.00;3.10;;;5.90;43.70;;;;;;4984012;28;20130;-90
2022/01/12 13:30:06;;;;;;;5.43;3.30;;;5.90;43.60;;;;;;4987261;28;20038;-90
2022/01/12 13:32:32;;;;;;;5.25;3.20;;;5.90;43.50;;;;;;4983735;28;20043;-92
2022/01/12 13:35:05;;;;;;;5.55;3.58;;;5.90;43.30;;;;;;4995280;28;20045;-90
2022/01/12 13:37:31;;;;;;;4.43;3.00;;;6.00;43.20;;;;;;5008021;28;20018;-87
2022/01/12 13:40:07;;;;;;;5.68;3.95;;;5.90;43.80;;;;;;5023929;28;20021;-90
2022/01/12 13:42:44;;;;;;;5.15;3.05;;;6.00;43.10;;;;;;5001383;28;20015;-91
2022/01/12 13:45:15;;;;;;;5.20;3.38;;;5.90;42.90;;;;;;5000017;28;20066;-89
2022/01/12 13:47:42;;;;;;;5.57;3.90;;;6.00;42.90;;;;;;5001645;28;20137;-89
2022/01/12 13:50:09;;;;;;;8.80;3.17;;;6.00;42.80;;;;;;4989293;28;20034;-90
2022/01/12 13:52:38;;;;;;;4.85;3.40;;;6.00;42.70;;;;;;4982724;28;20038;-92
2022/01/12 13:55:09;;;;;;;4.93;3.22;;;6.00;42.70;;;;;;4983981;28;20088;-92
2022/01/12 13:57:36;;;;;;;6.07;3.80;;;5.90;42.70;;;;;;4984369;28;20129;-91
2022/01/12 14:00:05;;;;;;;4.22;3.33;;;5.90;42.70;;;;;;4980539;28;20314;-91
2022/01/12 14:02:40;;;;;;;5.72;3.50;;;5.90;42.80;;;;;;4995401;28;20047;-92
2022/01/12 14:05:08;;;;;;;5.75;3.63;;;5.90;42.70;;;;;;4968906;28;20097;-90
2022/01/12 14:07:39;;;;;;;6.88;4.20;;;5.90;42.70;;;;;;4980954;28;20031;-91
2022/01/12 14:10:06;;;;;;;6.40;4.22;;;5.90;42.80;;;;;;4989539;28;20026;-90
2022/01/12 14:12:33;;;;;;;6.28;3.35;;;5.90;42.90;;;;;;4985707;28;20038;-93
2022/01/12 14:15:02;;;;;;;4.82;3.42;;;5.90;42.80;;;;;;4984886;28;20116;-90
2022/01/12 14:17:40;;;;;;;5.32;3.67;;;5.90;42.80;;;;;;4971948;28;20023;-90